طوكيو, اليابان

05:22 AM JST on دسمبر 11, 2016 (GMT +0900)
Kamata | | Change Station

Elev 30 ft 35.57 °N, 139.70 °E | Updated 12 seconds ago

غائم جزئياً
غائم جزئياً
42.0 °F
Feels Like 42 °F
N
0.0
ريح متغير ريح from NNE
Gusts 0.0 mph

هذا اليوم
High -- | Low -- °F
--% Chance of Precip.
Yesterday
High -- | Low -- °F
Precip. -- في
الضغط 30.04 في
وضوح الرؤية 6.2 أميال
سحابات Few 3000 ft
غائم كلياً 7000 ft
رياح باردة 42 °F
نقطة الندى 22 °F
الرطوبة 45%
Rainfall 0.00 في
عمق الثلج Not available.
6:40 AM 4:28 PM
الأحدب الأول, 86% visible
METAR RJTT 102000Z 32006KT 9999 FEW030 BKN070 06/M08 Q1017 NOSIG RMK 1CU030 7AC070 A3006
الضغط 30.04 في
وضوح الرؤية 6.2 أميال
سحابات Few 3000 ft
غائم كلياً 7000 ft
رياح باردة 42 °F
نقطة الندى 22 °F
الرطوبة 45%
Rainfall 0.00 في
عمق الثلج Not available.
6:40 AM 4:28 PM
الأحدب الأول, 86% visible
METAR RJTT 102000Z 32006KT 9999 FEW030 BKN070 06/M08 Q1017 NOSIG RMK 1CU030 7AC070 A3006

10-Day Weather Forecast

No radar image for this location.
×

Almanac

علم الفلك

Dec. 11, 2016 Rise Set
Actual Time
Civil Twilight
Nautical Twilight
Astronomical Twilight
قمر
Length Of Visible Light
طول الیوم
Tomorrow will be .
, % of the Moon is Illuminated

Today's Extremes

Country Highs Country Lows

Community

WunderPhotos

Upload Photos

1,956,651 photos uploaded!

WunderBlog® & News

Nearby

جودة الهواء

  جودة الهواء AQ Index Pollutant
Not available.

عمق الثلج

Station Depth Elevation

Earthquake Activity

City Distance Mag. Time & Date
Minimum magnitude displayed is 2.5.

Coastal Water Temperatures

مكان درجات الحرارة

Stations

Nearby Weather Stations

Station Location الحرارة رياح باردة نقطة الندى الرطوبة ريح Precip. Elev تحديث Type